createdAt,value
2017-10-23T00:00:13.569Z,6.53
2017-10-23T00:02:41.160Z,6.20
2017-10-23T00:05:08.731Z,7.10
2017-10-23T00:07:36.489Z,7.07
2017-10-23T00:10:04.053Z,7.03
2017-10-23T00:12:31.616Z,8.00
2017-10-23T00:14:59.213Z,6.22
2017-10-23T00:17:26.776Z,9.10
2017-10-23T00:19:54.925Z,7.70
2017-10-23T00:22:22.491Z,7.90
2017-10-23T00:24:50.081Z,8.10
2017-10-23T00:27:17.640Z,7.60
2017-10-23T00:29:45.252Z,8.70
2017-10-23T00:32:12.820Z,7.95
2017-10-23T00:34:40.626Z,6.60
2017-10-23T00:37:09.004Z,8.90
2017-10-23T00:39:36.596Z,8.37
2017-10-23T00:42:04.969Z,8.55
2017-10-23T00:44:32.633Z,8.00
2017-10-23T00:47:01.004Z,8.27
2017-10-23T00:49:28.623Z,10.57
2017-10-23T00:51:56.192Z,9.57
2017-10-23T00:54:23.809Z,8.90
2017-10-23T00:56:52.896Z,8.65
2017-10-23T00:59:21.236Z,9.17
2017-10-23T01:01:48.850Z,8.10
2017-10-23T01:04:17.176Z,9.67
2017-10-23T01:06:44.784Z,9.23
2017-10-23T01:09:13.145Z,7.60
2017-10-23T01:11:40.752Z,9.20
2017-10-23T01:14:08.528Z,9.27
2017-10-23T01:16:36.396Z,8.67
2017-10-23T01:19:04.161Z,7.47
2017-10-23T01:21:31.776Z,8.30
2017-10-23T01:24:00.145Z,8.20
2017-10-23T01:26:27.792Z,8.67
2017-10-23T01:28:55.356Z,6.97
2017-10-23T01:31:22.976Z,6.93
2017-10-23T01:33:50.546Z,7.70
2017-10-23T01:36:18.111Z,8.33
2017-10-23T01:38:45.740Z,9.10
2017-10-23T01:41:13.376Z,7.43
2017-10-23T01:43:40.989Z,8.80
2017-10-23T01:46:08.620Z,8.10
2017-10-23T01:48:36.961Z,8.83
2017-10-23T01:51:04.636Z,8.37
2017-10-23T01:53:32.291Z,7.77
2017-10-23T01:55:59.857Z,7.23
2017-10-23T01:58:27.521Z,7.90
2017-10-23T02:00:55.089Z,8.60
2017-10-23T02:03:22.696Z,8.30
2017-10-23T02:05:50.289Z,7.67
2017-10-23T02:08:17.856Z,6.33
2017-10-23T02:10:45.471Z,8.77
2017-10-23T02:13:13.095Z,9.93
2017-10-23T02:15:40.672Z,7.17
2017-10-23T02:18:09.009Z,7.80
2017-10-23T02:20:36.616Z,8.07
2017-10-23T02:23:05.000Z,6.07
2017-10-23T02:25:32.636Z,7.00
2017-10-23T02:28:00.196Z,7.07
2017-10-23T02:30:27.848Z,7.80
2017-10-23T02:32:55.474Z,7.83
2017-10-23T02:35:23.046Z,6.60
2017-10-23T02:37:50.661Z,6.47
2017-10-23T02:40:18.996Z,6.73
2017-10-23T02:42:46.602Z,5.83
2017-10-23T02:45:14.928Z,5.70
2017-10-23T02:47:42.536Z,5.50
2017-10-23T02:50:10.892Z,6.28
2017-10-23T02:52:38.499Z,5.77
2017-10-23T02:55:06.120Z,6.10
2017-10-23T02:57:33.737Z,6.50
2017-10-23T03:00:01.361Z,8.55
2017-10-23T03:02:29.693Z,6.40
2017-10-23T03:04:57.312Z,6.43
2017-10-23T03:07:24.892Z,5.95
2017-10-23T03:09:53.888Z,5.87
2017-10-23T03:12:21.496Z,6.93
2017-10-23T03:14:49.065Z,5.85
2017-10-23T03:17:16.724Z,5.87
2017-10-23T03:19:44.284Z,5.80
2017-10-23T03:22:11.888Z,6.03
2017-10-23T03:24:39.458Z,5.63
2017-10-23T03:27:07.084Z,6.70
2017-10-23T03:29:35.460Z,5.87
2017-10-23T03:32:03.796Z,5.97
2017-10-23T03:34:31.403Z,5.83
2017-10-23T03:36:59.734Z,6.57
2017-10-23T03:39:27.349Z,6.47
2017-10-23T03:41:55.676Z,6.63
2017-10-23T03:44:23.240Z,5.80
2017-10-23T03:46:50.855Z,7.83
2017-10-23T03:49:19.185Z,5.77
2017-10-23T03:51:46.788Z,6.47
2017-10-23T03:54:15.964Z,5.80
2017-10-23T03:56:43.529Z,7.33
2017-10-23T03:59:11.145Z,7.37
2017-10-23T04:01:39.037Z,7.50
2017-10-23T04:04:06.600Z,6.07
2017-10-23T04:06:34.204Z,7.40
2017-10-23T04:09:02.591Z,6.70
2017-10-23T04:11:30.152Z,7.40
2017-10-23T04:13:57.712Z,7.40
2017-10-23T04:16:25.324Z,6.90
2017-10-23T04:18:54.697Z,7.80
2017-10-23T04:21:22.304Z,8.10
2017-10-23T04:23:49.929Z,8.00
2017-10-23T04:26:17.495Z,7.10
2017-10-23T04:28:45.071Z,7.80
2017-10-23T04:31:12.685Z,7.00
2017-10-23T04:33:40.244Z,6.93
2017-10-23T04:36:07.864Z,7.72
2017-10-23T04:38:35.429Z,8.00
2017-10-23T04:41:04.563Z,8.10
2017-10-23T04:43:32.124Z,4.80
2017-10-23T04:45:59.685Z,7.22
2017-10-23T04:48:27.291Z,6.73
2017-10-23T04:50:56.392Z,7.77
2017-10-23T04:53:24.005Z,5.80
2017-10-23T04:55:51.944Z,7.73
2017-10-23T04:58:20.280Z,7.27
2017-10-23T05:00:47.887Z,7.90
2017-10-23T05:03:16.229Z,8.17
2017-10-23T05:05:43.812Z,6.83
2017-10-23T05:08:11.393Z,7.87
2017-10-23T05:10:39.744Z,8.27
2017-10-23T05:13:07.304Z,8.73
2017-10-23T05:15:35.724Z,6.17
2017-10-23T05:18:04.054Z,7.37
2017-10-23T05:20:31.740Z,8.23
2017-10-23T05:22:59.313Z,8.77
2017-10-23T05:25:27.668Z,7.30
2017-10-23T05:27:55.233Z,6.20
2017-10-23T05:30:22.839Z,6.13
2017-10-23T05:32:50.400Z,9.37
2017-10-23T05:35:17.985Z,8.70
2017-10-23T05:37:45.548Z,8.83
2017-10-23T05:40:13.140Z,7.73
2017-10-23T05:42:40.704Z,7.57
2017-10-23T05:45:08.359Z,9.33
2017-10-23T05:47:37.452Z,9.02
2017-10-23T05:50:06.531Z,7.90
2017-10-23T05:52:34.115Z,9.70
2017-10-23T05:55:01.681Z,10.07
2017-10-23T05:57:30.772Z,9.40
2017-10-23T05:59:58.332Z,7.78
2017-10-23T06:02:25.932Z,7.30
2017-10-23T06:04:53.873Z,9.20
2017-10-23T06:07:21.460Z,6.83
2017-10-23T06:09:49.021Z,9.10
2017-10-23T06:12:16.625Z,9.10
2017-10-23T06:14:44.188Z,7.47
2017-10-23T06:17:11.748Z,8.13
2017-10-23T06:19:39.332Z,10.03
2017-10-23T06:22:06.897Z,8.20
2017-10-23T06:24:34.489Z,7.37
2017-10-23T06:27:02.065Z,8.10
2017-10-23T06:29:29.648Z,8.97
2017-10-23T06:31:57.221Z,8.00
2017-10-23T06:34:24.812Z,9.27
2017-10-23T06:36:53.801Z,8.57
2017-10-23T06:39:22.156Z,7.93
2017-10-23T06:41:49.712Z,9.33
2017-10-23T06:44:17.488Z,7.97
2017-10-23T06:46:45.057Z,7.43
2017-10-23T06:49:12.616Z,8.57
2017-10-23T06:51:40.205Z,8.33
2017-10-23T06:54:08.532Z,7.77
2017-10-23T06:56:36.117Z,7.90
2017-10-23T06:59:03.685Z,8.15
2017-10-23T07:01:32.040Z,7.53
2017-10-23T07:03:59.604Z,7.63
2017-10-23T07:06:27.193Z,7.90
2017-10-23T07:08:55.520Z,7.83
2017-10-23T07:11:23.103Z,7.50
2017-10-23T07:13:50.672Z,6.40
2017-10-23T07:16:18.259Z,7.20
2017-10-23T07:18:46.593Z,7.83
2017-10-23T07:21:14.161Z,6.13
2017-10-23T07:23:41.748Z,8.53
2017-10-23T07:26:10.077Z,7.50
2017-10-23T07:28:37.659Z,7.30
2017-10-23T07:31:05.229Z,5.45
2017-10-23T07:33:32.817Z,6.55
2017-10-23T07:36:01.146Z,7.80
2017-10-23T07:38:28.732Z,5.77
2017-10-23T07:40:56.298Z,7.00
2017-10-23T07:43:23.890Z,6.83
2017-10-23T07:45:53.838Z,5.37
2017-10-23T07:48:21.436Z,7.17
2017-10-23T07:50:49.775Z,7.00
2017-10-23T07:53:17.365Z,5.23
2017-10-23T07:55:44.928Z,5.40
2017-10-23T07:58:12.700Z,5.93
2017-10-23T08:00:40.271Z,5.77
2017-10-23T08:03:08.614Z,5.57
2017-10-23T08:05:36.205Z,4.23
2017-10-23T08:08:03.773Z,6.80
2017-10-23T08:10:32.128Z,5.70
2017-10-23T08:12:59.696Z,6.17
2017-10-23T08:15:27.301Z,6.37
2017-10-23T08:17:54.920Z,5.53
2017-10-23T08:20:23.989Z,6.20
2017-10-23T08:22:53.717Z,6.47
2017-10-23T08:25:21.284Z,7.70
2017-10-23T08:27:49.640Z,7.40
2017-10-23T08:30:17.246Z,6.80
2017-10-23T08:32:45.612Z,7.07
2017-10-23T08:35:13.173Z,7.40
2017-10-23T08:37:40.764Z,7.43
2017-10-23T08:40:08.332Z,5.32
2017-10-23T08:42:35.921Z,7.73
2017-10-23T08:45:03.488Z,6.60
2017-10-23T08:47:31.229Z,7.13
2017-10-23T08:49:58.800Z,8.13
2017-10-23T08:52:26.368Z,7.30
2017-10-23T08:54:54.740Z,8.47
2017-10-23T08:57:22.296Z,5.77
2017-10-23T08:59:49.860Z,7.50
2017-10-23T09:02:17.457Z,7.03
2017-10-23T09:04:45.021Z,6.83
2017-10-23T09:07:12.633Z,6.53
2017-10-23T09:09:40.197Z,6.03
2017-10-23T09:12:07.780Z,6.25
2017-10-23T09:14:35.341Z,5.10
2017-10-23T09:17:02.941Z,6.00
2017-10-23T09:19:31.276Z,4.63
2017-10-23T09:21:58.860Z,5.07
2017-10-23T09:24:26.433Z,3.40
2017-10-23T09:26:54.800Z,3.77
2017-10-23T09:29:23.136Z,5.17
2017-10-23T09:31:50.721Z,4.30
2017-10-23T09:34:18.275Z,4.00
2017-10-23T09:36:45.855Z,4.57
2017-10-23T09:39:13.524Z,4.67
2017-10-23T09:41:41.108Z,4.60
2017-10-23T09:44:09.440Z,4.18
2017-10-23T09:46:37.036Z,4.70
2017-10-23T09:49:04.605Z,4.37
2017-10-23T09:51:33.273Z,4.50
2017-10-23T09:54:00.857Z,3.97
2017-10-23T09:56:29.212Z,6.37
2017-10-23T09:58:56.796Z,5.50
2017-10-23T10:01:25.125Z,3.87
2017-10-23T10:03:53.876Z,6.30
2017-10-23T10:06:21.441Z,6.87
2017-10-23T10:08:49.053Z,6.13
2017-10-23T10:11:16.616Z,5.30
2017-10-23T10:13:44.184Z,5.50
2017-10-23T10:16:11.771Z,6.72
2017-10-23T10:18:40.104Z,3.60
2017-10-23T10:21:07.691Z,4.22
2017-10-23T10:23:35.265Z,4.50
2017-10-23T10:26:03.643Z,5.27
2017-10-23T10:28:31.228Z,4.63
2017-10-23T10:30:58.972Z,5.22
2017-10-23T10:33:27.304Z,4.30
2017-10-23T10:35:54.868Z,5.07
2017-10-23T10:38:22.457Z,4.40
2017-10-23T10:40:50.027Z,5.90
2017-10-23T10:43:18.385Z,5.70
2017-10-23T10:45:45.976Z,4.83
2017-10-23T10:48:14.336Z,6.00
2017-10-23T10:50:41.916Z,4.17
2017-10-23T10:53:10.254Z,5.03
2017-10-23T10:55:37.848Z,5.70
2017-10-23T10:58:06.186Z,4.60
2017-10-23T11:00:33.785Z,5.40
2017-10-23T11:03:02.125Z,3.70
2017-10-23T11:05:29.720Z,6.47
2017-10-23T11:07:58.052Z,4.00
2017-10-23T11:10:25.862Z,4.47
2017-10-23T11:12:53.845Z,4.57
2017-10-23T11:15:22.180Z,4.00
2017-10-23T11:17:49.784Z,4.00
2017-10-23T11:20:18.120Z,4.53
2017-10-23T11:22:45.681Z,3.73
2017-10-23T11:25:13.272Z,3.90
2017-10-23T11:27:40.849Z,4.17
2017-10-23T11:30:11.161Z,4.87
2017-10-23T11:32:39.489Z,4.10
2017-10-23T11:35:07.075Z,4.10
2017-10-23T11:37:34.640Z,4.80
2017-10-23T11:40:02.317Z,4.70
2017-10-23T11:42:30.660Z,4.97
2017-10-23T11:44:58.220Z,4.03
2017-10-23T11:47:25.815Z,6.60
2017-10-23T11:49:55.492Z,4.87
2017-10-23T11:52:23.286Z,4.27
2017-10-23T11:54:50.856Z,4.10
2017-10-23T11:57:18.422Z,4.73
2017-10-23T11:59:46.780Z,4.50
2017-10-23T12:02:14.345Z,4.33
2017-10-23T12:04:41.936Z,3.77
2017-10-23T12:07:10.293Z,4.47
2017-10-23T12:09:38.678Z,3.97
2017-10-23T12:12:07.043Z,3.33
2017-10-23T12:14:34.632Z,3.10
2017-10-23T12:17:02.967Z,4.20
2017-10-23T12:19:30.561Z,3.00
2017-10-23T12:21:58.892Z,3.53
2017-10-23T12:24:26.484Z,3.50
2017-10-23T12:26:54.668Z,3.40
2017-10-23T12:29:22.255Z,3.40
2017-10-23T12:31:49.819Z,3.03
2017-10-23T12:34:17.751Z,2.70
2017-10-23T12:36:45.311Z,2.87
2017-10-23T12:39:12.877Z,2.80
2017-10-23T12:41:41.973Z,3.80
2017-10-23T12:44:09.544Z,3.22
2017-10-23T12:46:37.904Z,3.00
2017-10-23T12:49:05.490Z,2.67
2017-10-23T12:51:33.948Z,3.73
2017-10-23T12:54:01.516Z,3.20
2017-10-23T12:56:29.387Z,3.60
2017-10-23T12:58:56.952Z,3.72
2017-10-23T13:01:25.298Z,3.83
2017-10-23T13:03:54.616Z,3.27
2017-10-23T13:06:22.180Z,2.97
2017-10-23T13:08:50.053Z,4.13
2017-10-23T13:11:17.616Z,3.57
2017-10-23T13:13:45.189Z,3.83
2017-10-23T13:16:12.792Z,3.20
2017-10-23T13:18:40.356Z,3.27
2017-10-23T13:21:07.940Z,2.90
2017-10-23T13:23:35.506Z,3.33
2017-10-23T13:26:03.178Z,4.10
2017-10-23T13:28:30.744Z,3.30
2017-10-23T13:30:59.104Z,3.80
2017-10-23T13:33:26.663Z,3.33
2017-10-23T13:35:54.860Z,3.87
2017-10-23T13:38:23.196Z,3.30
2017-10-23T13:40:50.975Z,5.00
2017-10-23T13:43:18.544Z,4.50
2017-10-23T13:45:46.103Z,3.47
2017-10-23T13:48:13.780Z,4.33
2017-10-23T13:50:41.353Z,3.90
2017-10-23T13:53:10.033Z,3.77
2017-10-23T13:55:37.596Z,4.23
2017-10-23T13:58:05.929Z,4.20
2017-10-23T14:00:33.519Z,3.87
2017-10-23T14:03:01.093Z,4.25
2017-10-23T14:05:28.680Z,4.40
2017-10-23T14:07:56.240Z,3.83
2017-10-23T14:10:23.825Z,4.00
2017-10-23T14:12:53.849Z,3.78
2017-10-23T14:15:21.452Z,3.60
2017-10-23T14:17:49.012Z,3.33
2017-10-23T14:20:16.600Z,3.93
2017-10-23T14:22:44.170Z,4.37
2017-10-23T14:25:11.992Z,4.78
2017-10-23T14:27:39.559Z,5.43
2017-10-23T14:30:08.636Z,4.55
2017-10-23T14:32:36.261Z,4.40
2017-10-23T14:35:03.829Z,4.23
2017-10-23T14:37:31.420Z,3.93
2017-10-23T14:39:58.993Z,4.30
2017-10-23T14:42:26.592Z,4.30
2017-10-23T14:44:55.526Z,4.10
2017-10-23T14:47:23.111Z,4.07
2017-10-23T14:49:50.675Z,4.50
2017-10-23T14:52:18.644Z,5.47
2017-10-23T14:54:46.205Z,4.57
2017-10-23T14:57:13.772Z,5.05
2017-10-23T14:59:42.133Z,5.50
2017-10-23T15:02:09.707Z,5.25
2017-10-23T15:04:37.305Z,4.73
2017-10-23T15:07:04.877Z,5.30
2017-10-23T15:09:32.687Z,5.30
2017-10-23T15:12:01.021Z,5.50
2017-10-23T15:14:28.593Z,5.70
2017-10-23T15:16:56.181Z,5.87
2017-10-23T15:19:24.514Z,5.00
2017-10-23T15:21:54.084Z,4.50
2017-10-23T15:24:22.424Z,4.13
2017-10-23T15:26:50.008Z,5.80
2017-10-23T15:29:17.568Z,6.13
2017-10-23T15:31:45.239Z,6.10
2017-10-23T15:34:12.809Z,4.62
2017-10-23T15:36:41.137Z,5.60
2017-10-23T15:39:08.721Z,5.50
2017-10-23T15:41:36.285Z,5.67
2017-10-23T15:44:03.965Z,5.12
2017-10-23T15:46:32.296Z,5.27
2017-10-23T15:48:59.916Z,4.57
2017-10-23T15:51:28.244Z,4.17
2017-10-23T15:53:55.809Z,5.40
2017-10-23T15:56:23.615Z,6.30
2017-10-23T15:58:53.692Z,5.45
2017-10-23T16:01:21.259Z,5.25
2017-10-23T16:03:48.857Z,5.90
2017-10-23T16:06:16.423Z,6.03
2017-10-23T16:08:44.795Z,6.30
2017-10-23T16:11:12.356Z,3.90
2017-10-23T16:13:39.917Z,5.62
2017-10-23T16:16:07.856Z,5.27
2017-10-23T16:18:35.416Z,4.73
2017-10-23T16:21:02.980Z,4.73
2017-10-23T16:23:30.659Z,5.23
2017-10-23T16:25:58.220Z,5.53
2017-10-23T16:28:25.779Z,4.30
2017-10-23T16:30:54.696Z,5.70
2017-10-23T16:33:23.023Z,4.60
2017-10-23T16:35:50.604Z,4.50
2017-10-23T16:38:18.163Z,5.80
2017-10-23T16:40:45.752Z,6.33
2017-10-23T16:43:14.080Z,5.53
2017-10-23T16:45:41.855Z,7.20
2017-10-23T16:48:09.422Z,7.57
2017-10-23T16:50:36.986Z,6.17
2017-10-23T16:53:04.577Z,7.57
2017-10-23T16:55:32.913Z,7.00
2017-10-23T16:58:01.332Z,8.00
2017-10-23T17:00:29.661Z,7.50
2017-10-23T17:02:57.460Z,7.35
2017-10-23T17:05:25.025Z,7.90
2017-10-23T17:07:53.808Z,8.10
2017-10-23T17:10:21.576Z,8.63
2017-10-23T17:12:49.136Z,8.90
2017-10-23T17:15:16.709Z,8.20
2017-10-23T17:17:45.060Z,8.10
2017-10-23T17:20:12.633Z,7.37
2017-10-23T17:22:40.669Z,7.77
2017-10-23T17:25:08.228Z,6.00
2017-10-23T17:27:35.824Z,7.00
2017-10-23T17:30:03.389Z,6.60
2017-10-23T17:32:30.976Z,7.10
2017-10-23T17:34:59.308Z,7.12
2017-10-23T17:37:26.897Z,7.53
2017-10-23T17:39:55.092Z,6.95
2017-10-23T17:42:23.416Z,6.30
2017-10-23T17:44:51.004Z,6.77
2017-10-23T17:47:18.568Z,7.50
2017-10-23T17:49:46.152Z,7.63
2017-10-23T17:52:14.491Z,8.30
2017-10-23T17:54:42.088Z,6.20
2017-10-23T17:57:10.436Z,8.80
2017-10-23T17:59:38.000Z,9.40
2017-10-23T18:02:05.593Z,8.85
2017-10-23T18:04:33.919Z,8.50
2017-10-23T18:07:01.707Z,9.03
2017-10-23T18:09:29.267Z,9.37
2017-10-23T18:11:57.598Z,8.93
2017-10-23T18:14:25.197Z,7.30
2017-10-23T18:16:53.009Z,8.00
2017-10-23T18:19:20.576Z,8.10
2017-10-23T18:21:48.157Z,9.87
2017-10-23T18:24:15.725Z,10.33
2017-10-23T18:26:43.308Z,9.07
2017-10-23T18:29:10.980Z,8.75
2017-10-23T18:31:38.545Z,8.20
2017-10-23T18:34:06.212Z,10.25
2017-10-23T18:36:33.780Z,11.40
2017-10-23T18:39:02.144Z,11.38
2017-10-23T18:41:30.477Z,10.70
2017-10-23T18:43:58.065Z,10.53
2017-10-23T18:46:25.623Z,11.57
2017-10-23T18:48:53.324Z,12.30
2017-10-23T18:51:21.661Z,11.83
2017-10-23T18:53:49.229Z,9.90
2017-10-23T18:56:16.820Z,12.10
2017-10-23T18:58:45.148Z,13.00
2017-10-23T19:01:12.740Z,13.50
2017-10-23T19:03:40.303Z,13.07
2017-10-23T19:06:07.868Z,11.87
2017-10-23T19:08:35.455Z,14.23
2017-10-23T19:11:03.789Z,11.23
2017-10-23T19:13:31.380Z,11.30
2017-10-23T19:15:59.720Z,13.93
2017-10-23T19:18:27.288Z,14.87
2017-10-23T19:20:56.709Z,12.80
2017-10-23T19:23:24.580Z,15.20
2017-10-23T19:25:52.917Z,14.07
2017-10-23T19:28:20.484Z,11.23
2017-10-23T19:30:48.081Z,12.03
2017-10-23T19:33:15.676Z,15.13
2017-10-23T19:35:43.252Z,13.37
2017-10-23T19:38:10.844Z,14.20
2017-10-23T19:40:38.409Z,12.00
2017-10-23T19:43:06.024Z,15.47
2017-10-23T19:45:33.593Z,13.80
2017-10-23T19:48:01.380Z,16.75
2017-10-23T19:50:28.940Z,14.33
2017-10-23T19:52:58.487Z,15.10
2017-10-23T19:55:26.096Z,16.27
2017-10-23T19:57:54.036Z,12.77
2017-10-23T20:00:22.372Z,15.80
2017-10-23T20:02:49.956Z,14.80
2017-10-23T20:05:17.549Z,17.80
2017-10-23T20:07:45.113Z,14.57
2017-10-23T20:10:12.704Z,15.67
2017-10-23T20:12:40.292Z,14.50
2017-10-23T20:15:08.632Z,18.63
2017-10-23T20:17:36.229Z,14.60
2017-10-23T20:20:04.577Z,17.12
2017-10-23T20:22:32.165Z,17.00
2017-10-23T20:24:59.737Z,17.70
2017-10-23T20:27:27.327Z,17.70
2017-10-23T20:29:56.655Z,15.07
2017-10-23T20:32:24.240Z,18.97
2017-10-23T20:34:51.800Z,18.80
2017-10-23T20:37:19.389Z,15.80
2017-10-23T20:39:47.724Z,21.83
2017-10-23T20:42:15.325Z,28.80
2017-10-23T20:44:42.893Z,28.87
2017-10-23T20:47:11.264Z,32.92
2017-10-23T20:49:38.831Z,43.97
2017-10-23T20:52:07.201Z,25.12
2017-10-23T20:54:34.796Z,40.50
2017-10-23T20:57:02.765Z,40.87
2017-10-23T20:59:30.361Z,51.37
2017-10-23T21:01:57.936Z,32.73
2017-10-23T21:04:25.527Z,27.00
2017-10-23T21:06:53.930Z,64.07
2017-10-23T21:09:21.708Z,46.90
2017-10-23T21:11:49.296Z,44.57
2017-10-23T21:14:17.861Z,48.00
2017-10-23T21:16:45.467Z,36.00
2017-10-23T21:19:13.812Z,41.97
2017-10-23T21:21:41.399Z,44.23
2017-10-23T21:24:08.967Z,51.65
2017-10-23T21:26:36.729Z,56.90
2017-10-23T21:29:05.081Z,40.93
2017-10-23T21:31:32.658Z,35.93
2017-10-23T21:34:00.252Z,38.78
2017-10-23T21:36:27.997Z,45.05
2017-10-23T21:38:57.585Z,48.13
2017-10-23T21:41:25.153Z,54.73
2017-10-23T21:43:52.793Z,55.30
2017-10-23T21:46:32.240Z,53.80
2017-10-23T21:48:59.831Z,53.13
2017-10-23T21:51:28.170Z,49.50
2017-10-23T21:53:56.702Z,48.83
2017-10-23T21:56:25.042Z,46.30
2017-10-23T21:58:52.635Z,45.87
2017-10-23T22:01:20.472Z,40.57
2017-10-23T22:03:48.153Z,28.73
2017-10-23T22:06:15.740Z,31.17
2017-10-23T22:08:44.096Z,29.37
2017-10-23T22:11:11.660Z,20.92
2017-10-23T22:13:39.229Z,22.33
2017-10-23T22:16:07.609Z,21.80
2017-10-23T22:18:35.971Z,22.77
2017-10-23T22:21:03.580Z,20.40
2017-10-23T22:23:31.188Z,21.20
2017-10-23T22:25:58.804Z,23.67
2017-10-23T22:28:26.397Z,24.00
2017-10-23T22:30:55.699Z,25.37
2017-10-23T22:33:23.267Z,25.83
2017-10-23T22:35:50.884Z,39.53
2017-10-23T22:38:18.452Z,43.70
2017-10-23T22:40:46.096Z,30.47
2017-10-23T22:43:14.654Z,36.47
2017-10-23T22:45:42.229Z,25.70
2017-10-23T22:48:10.580Z,22.70
2017-10-23T22:50:38.168Z,24.60
2017-10-23T22:53:06.504Z,25.70
2017-10-23T22:55:34.077Z,21.90
2017-10-23T22:58:01.669Z,24.80
2017-10-23T23:00:30.004Z,23.77
2017-10-23T23:02:58.615Z,23.37
2017-10-23T23:05:26.184Z,24.60
2017-10-23T23:07:53.933Z,21.57
2017-10-23T23:10:21.502Z,21.93
2017-10-23T23:12:49.083Z,23.40
2017-10-23T23:15:17.444Z,22.30
2017-10-23T23:17:45.032Z,22.50
2017-10-23T23:20:12.595Z,20.50
2017-10-23T23:22:40.187Z,19.67
2017-10-23T23:25:07.749Z,21.23
2017-10-23T23:27:35.336Z,21.20
2017-10-23T23:30:02.909Z,20.85
2017-10-23T23:32:30.713Z,21.27
2017-10-23T23:34:58.276Z,18.63
2017-10-23T23:37:25.839Z,20.50
2017-10-23T23:39:53.427Z,19.47
2017-10-23T23:42:20.991Z,21.83
2017-10-23T23:44:48.580Z,19.57
2017-10-23T23:47:16.148Z,21.67
2017-10-23T23:49:44.508Z,20.87
2017-10-23T23:52:12.844Z,20.50
2017-10-23T23:54:40.660Z,17.33
2017-10-23T23:57:08.229Z,19.20
2017-10-23T23:59:36.568Z,22.00
